Wetter

Link zur aktuellen Windanzeige


Nordholz:

METAR:

2020/04/01 17:20 ETMN 011720Z 28014KT 9999 FEW009 BKN050 06/04 Q1016 BLU BLU

TAF:

2020/04/01 17:31 TAF ETMN 011626Z 0117/0202 26013KT 9999 NSW FEW012 BKN045 CANCEL 1750

Wind EDXN:

01.04. 16:20z 280/10G19kt
01.04. 16:30z 280/11G16kt
01.04. 16:40z 270/09G15kt
01.04. 16:50z 270/12G16kt
01.04. 17:00z 270/09G16kt
01.04. 17:10z 270/09G15kt
01.04. 17:20z 270/10G15kt
01.04. 17:30z 270/09G15kt
01.04. 17:40z 270/09G12kt
01.04. 17:50z 270/08G12kt

Bremen:

METAR:

2020/04/01 17:20 EDDW 011720Z 27009KT 9999 FEW037 BKN049 06/03 Q1017 NOSIG

TAF:

2020/04/01 18:27 TAF EDDW 011700Z 0118/0218 24007KT 9999 BKN040 BECMG 0209/0211 25015G25KT

Hamburg:

METAR:

2020/04/01 17:20 EDDH 011720Z 28009KT 9999 FEW018 SCT035 07/03 Q1016 NOSIG

TAF:

2020/04/01 18:27 TAF EDDH 011700Z 0118/0224 25008KT 9999 BKN040 PROB30 TEMPO 0202/0208 BKN013 BECMG 0209/0211 26015G25KT TEMPO 0219/0224 27012KT

Hannover:

METAR:

2020/04/01 17:20 EDDV 011720Z 27008KT 9999 FEW037 SCT046 07/01 Q1017 NOSIG

TAF:

2020/04/01 18:27 TAF EDDV 011700Z 0118/0218 26005KT 9999 BKN040 BECMG 0206/0208 25010KT PROB30 TEMPO 0213/0216 25015G25KT

Wikipedia Artikel: METARTAF

Daten von Aviation Weather Center der NOAA, es kann keine Garantie für Aktualität und Richtigkeit der Daten übernommen werden.

Die Nutzung dieser Daten zur Flugplanung ist nicht zulässig!

Inoffizielle ATIS 🙂